Hikarimaru No.17 — JD2956 — position and weather

sailwx.info

Track history (hours):
 
Tides and Currents Weather Stations Pressure Air Temp Water Temp Dewpoint Dewpoint Depression Visibility Wind Speed Wind Dir Waves Ship Positions

Hikarimaru No.17

Last reported at 2016-Jul-27 13:07 UTC. Time now 2016-Jul-30 07:21 UTC.
Position N 34°38' E 134°50'.

Length 105 m; draft 6.7 m.

Type: Tanker. MMSI: 431000984.

Date/timePositionNaut miles runAvg speedWind from/ knotsBaromVisibWave heightAir tempDewpointWater temp
2016-Jul-27 13:07N 34°38' E 134°50'712.0
2016-Jul-27 12:33N 34°38' E 134°58'9 8.9
2016-Jul-27 11:33N 34°30' E 135°04'1313.0
2016-Jul-27 10:33N 34°18' E 134°59'1111.4
2016-Jul-27 09:33N 34°09' E 135°08'0 0.2
2016-Jul-27 08:31N 34°09' E 135°08'0 0.0
2016-Jul-27 07:28N 34°09' E 135°08'0 0.0
2016-Jul-27 06:31N 34°09' E 135°08'0 0.0
2016-Jul-27 05:28N 34°09' E 135°08'0 0.1
2016-Jul-27 04:31N 34°09' E 135°08'2 0.4
2016-Jul-26 23:33N 34°08' E 135°07'2 2.0
2016-Jul-26 22:32N 34°09' E 135°08'0 0.0
2016-Jul-26 21:32N 34°09' E 135°08'0 0.0
2016-Jul-26 20:29N 34°09' E 135°08'0 0.0
2016-Jul-26 19:32N 34°09' E 135°08'0 0.0
2016-Jul-26 18:32N 34°09' E 135°08'0 0.0
2016-Jul-26 17:29N 34°09' E 135°08'0 0.1
2016-Jul-26 16:32N 34°09' E 135°08'0 0.0
2016-Jul-26 15:29N 34°09' E 135°08'0 0.0
2016-Jul-26 14:32N 34°09' E 135°08'0 0.0
2016-Jul-26 13:32N 34°09' E 135°08'0 0.0
2016-Jul-26 12:32N 34°09' E 135°08'0 0.0
2016-Jul-26 11:32N 34°09' E 135°08'0 0.0
2016-Jul-26 10:32N 34°09' E 135°08'0 0.0
2016-Jul-26 09:32N 34°09' E 135°08'0 0.0
2016-Jul-26 08:32N 34°09' E 135°08'0 0.0
2016-Jul-26 07:32N 34°09' E 135°08'0 0.0
2016-Jul-26 06:26N 34°09' E 135°08'2 2.0
2016-Jul-26 05:33N 34°11' E 135°07'1210.7
2016-Jul-26 04:27N 34°21' E 134°60'1112.0
2016-Jul-26 03:33N 34°31' E 135°02'8 7.7
2016-Jul-26 02:29N 34°37' E 134°55'  
2016-Jul-19 09:33N 34°37' E 135°01'1212.4
2016-Jul-19 08:33N 34°25' E 135°03'1212.2
2016-Jul-19 07:33N 34°13' E 135°02'7 2.4
2016-Jul-19 04:32N 34°07' E 135°07'0 0.0
2016-Jul-19 03:33N 34°07' E 135°07'0 0.0
2016-Jul-19 02:27N 34°07' E 135°07'0 0.0
2016-Jul-19 01:33N 34°07' E 135°07'0 0.0
2016-Jul-19 00:33N 34°07' E 135°07'2 2.4
2016-Jul-18 23:33N 34°09' E 135°08'0 0.1
2016-Jul-18 22:33N 34°09' E 135°08'0 0.0
2016-Jul-18 21:33N 34°09' E 135°08'0 0.0
2016-Jul-18 20:24N 34°09' E 135°08'0 0.0
2016-Jul-18 19:33N 34°09' E 135°08'0 0.0
2016-Jul-18 18:30N 34°09' E 135°08'0 0.0
2016-Jul-18 17:33N 34°09' E 135°08'0 0.0
2016-Jul-18 16:33N 34°09' E 135°08'0 0.0
2016-Jul-18 15:33N 34°09' E 135°08'0 0.1
2016-Jul-18 14:33N 34°09' E 135°08'0 0.0
2016-Jul-18 13:33N 34°09' E 135°08'0 0.1
2016-Jul-18 12:33N 34°09' E 135°08'0 0.0
2016-Jul-18 11:30N 34°09' E 135°08'0 0.0
2016-Jul-18 10:33N 34°09' E 135°08'0 0.0
2016-Jul-18 09:33N 34°09' E 135°08'0 0.0
2016-Jul-18 08:33N 34°09' E 135°08'0 0.0
2016-Jul-18 07:33N 34°09' E 135°08'0 0.0
2016-Jul-18 06:33N 34°09' E 135°08'0 0.0
2016-Jul-18 05:33N 34°09' E 135°08'0 0.1
2016-Jul-18 04:30N 34°09' E 135°08'0 0.0
2016-Jul-18 03:33N 34°09' E 135°08'0 0.0
2016-Jul-18 02:33N 34°09' E 135°08'0 0.0
2016-Jul-18 01:33N 34°09' E 135°08'0 0.0
2016-Jul-18 00:33N 34°09' E 135°08'2 2.2
2016-Jul-17 23:33N 34°11' E 135°07'2 1.8
2016-Jul-17 22:33N 34°13' E 135°09'0 0.0
2016-Jul-17 21:33N 34°13' E 135°09'0 0.0
2016-Jul-17 20:33N 34°13' E 135°09'0 0.0
2016-Jul-17 19:33N 34°13' E 135°09'0 0.0
2016-Jul-17 18:33N 34°13' E 135°09'0 0.0
2016-Jul-17 17:33N 34°13' E 135°09'0 0.0
2016-Jul-17 16:33N 34°13' E 135°09'0 0.0
2016-Jul-17 15:33N 34°13' E 135°09'0 0.0
2016-Jul-17 14:33N 34°13' E 135°09'0 0.0
2016-Jul-17 13:33N 34°13' E 135°09'  
Track history (hours):
 
Tides and Currents Weather Stations Pressure Air Temp Water Temp Dewpoint Dewpoint Depression Visibility Wind Speed Wind Dir Waves Ship Positions

Hikarimaru No.17

Last reported at 2016-Jul-27 13:07 UTC. Time now 2016-Jul-30 07:21 UTC.
Position N 34°38' E 134°50'.

Length 105 m; draft 6.7 m.

Type: Tanker. MMSI: 431000984.

Date/timePositionNaut miles runAvg speedWind from/ knotsBaromVisibWave heightAir tempDewpointWater temp
2016-Jul-27 13:07N 34°38' E 134°50'712.0
2016-Jul-27 12:33N 34°38' E 134°58'9 8.9
2016-Jul-27 11:33N 34°30' E 135°04'1313.0
2016-Jul-27 10:33N 34°18' E 134°59'1111.4
2016-Jul-27 09:33N 34°09' E 135°08'0 0.2
2016-Jul-27 08:31N 34°09' E 135°08'0 0.0
2016-Jul-27 07:28N 34°09' E 135°08'0 0.0
2016-Jul-27 06:31N 34°09' E 135°08'0 0.0
2016-Jul-27 05:28N 34°09' E 135°08'0 0.1
2016-Jul-27 04:31N 34°09' E 135°08'2 0.4
2016-Jul-26 23:33N 34°08' E 135°07'2 2.0
2016-Jul-26 22:32N 34°09' E 135°08'0 0.0
2016-Jul-26 21:32N 34°09' E 135°08'0 0.0
2016-Jul-26 20:29N 34°09' E 135°08'0 0.0
2016-Jul-26 19:32N 34°09' E 135°08'0 0.0
2016-Jul-26 18:32N 34°09' E 135°08'0 0.0
2016-Jul-26 17:29N 34°09' E 135°08'0 0.1
2016-Jul-26 16:32N 34°09' E 135°08'0 0.0
2016-Jul-26 15:29N 34°09' E 135°08'0 0.0
2016-Jul-26 14:32N 34°09' E 135°08'0 0.0
2016-Jul-26 13:32N 34°09' E 135°08'0 0.0
2016-Jul-26 12:32N 34°09' E 135°08'0 0.0
2016-Jul-26 11:32N 34°09' E 135°08'0 0.0
2016-Jul-26 10:32N 34°09' E 135°08'0 0.0
2016-Jul-26 09:32N 34°09' E 135°08'0 0.0
2016-Jul-26 08:32N 34°09' E 135°08'0 0.0
2016-Jul-26 07:32N 34°09' E 135°08'0 0.0
2016-Jul-26 06:26N 34°09' E 135°08'2 2.0
2016-Jul-26 05:33N 34°11' E 135°07'1210.7
2016-Jul-26 04:27N 34°21' E 134°60'1112.0
2016-Jul-26 03:33N 34°31' E 135°02'8 7.7
2016-Jul-26 02:29N 34°37' E 134°55'  
2016-Jul-19 09:33N 34°37' E 135°01'1212.4
2016-Jul-19 08:33N 34°25' E 135°03'1212.2
2016-Jul-19 07:33N 34°13' E 135°02'7 2.4
2016-Jul-19 04:32N 34°07' E 135°07'0 0.0
2016-Jul-19 03:33N 34°07' E 135°07'0 0.0
2016-Jul-19 02:27N 34°07' E 135°07'0 0.0
2016-Jul-19 01:33N 34°07' E 135°07'0 0.0
2016-Jul-19 00:33N 34°07' E 135°07'2 2.4
2016-Jul-18 23:33N 34°09' E 135°08'0 0.1
2016-Jul-18 22:33N 34°09' E 135°08'0 0.0
2016-Jul-18 21:33N 34°09' E 135°08'0 0.0
2016-Jul-18 20:24N 34°09' E 135°08'0 0.0
2016-Jul-18 19:33N 34°09' E 135°08'0 0.0
2016-Jul-18 18:30N 34°09' E 135°08'0 0.0
2016-Jul-18 17:33N 34°09' E 135°08'0 0.0
2016-Jul-18 16:33N 34°09' E 135°08'0 0.0
2016-Jul-18 15:33N 34°09' E 135°08'0 0.1
2016-Jul-18 14:33N 34°09' E 135°08'0 0.0
2016-Jul-18 13:33N 34°09' E 135°08'0 0.1
2016-Jul-18 12:33N 34°09' E 135°08'0 0.0
2016-Jul-18 11:30N 34°09' E 135°08'0 0.0
2016-Jul-18 10:33N 34°09' E 135°08'0 0.0
2016-Jul-18 09:33N 34°09' E 135°08'0 0.0
2016-Jul-18 08:33N 34°09' E 135°08'0 0.0
2016-Jul-18 07:33N 34°09' E 135°08'0 0.0
2016-Jul-18 06:33N 34°09' E 135°08'0 0.0
2016-Jul-18 05:33N 34°09' E 135°08'0 0.1
2016-Jul-18 04:30N 34°09' E 135°08'0 0.0
2016-Jul-18 03:33N 34°09' E 135°08'0 0.0
2016-Jul-18 02:33N 34°09' E 135°08'0 0.0
2016-Jul-18 01:33N 34°09' E 135°08'0 0.0
2016-Jul-18 00:33N 34°09' E 135°08'2 2.2
2016-Jul-17 23:33N 34°11' E 135°07'2 1.8
2016-Jul-17 22:33N 34°13' E 135°09'0 0.0
2016-Jul-17 21:33N 34°13' E 135°09'0 0.0
2016-Jul-17 20:33N 34°13' E 135°09'0 0.0
2016-Jul-17 19:33N 34°13' E 135°09'0 0.0
2016-Jul-17 18:33N 34°13' E 135°09'0 0.0
2016-Jul-17 17:33N 34°13' E 135°09'0 0.0
2016-Jul-17 16:33N 34°13' E 135°09'0 0.0
2016-Jul-17 15:33N 34°13' E 135°09'0 0.0
2016-Jul-17 14:33N 34°13' E 135°09'0 0.0
2016-Jul-17 13:33N 34°13' E 135°09'  

Dump ship's entire track history